Flight Track Log - Related Links

Times and Time Zones

All times are in EDT time to prevent confusion due to time zone crossing. See the RPA3392 flight status page for this flight to view local times or setup timezone preferences in your user account.

Time Position Orientation Groundspeed Altitude Reporting Facility
EDT Latitude Longitude Course Direction KTS MPH feet Rate Location/Type
Sun 05:50:07 PM 44.9167 -93.2333 117° Southeast 185 213 2,600  Level Minneapolis TRACON
Sun 05:50:44 PM 44.9444 -93.2367 355° North 194 223 3,700 1,879 Climbing Minneapolis Center
Sun 05:51:46 PM 44.9944 -93.1706 43° Northeast 261 300 5,700 2,468 Climbing Minneapolis Center
Sun 05:52:00 PM 44.7272 -92.6589 113° Southeast  Level Estimated
Sun 05:52:48 PM 45.0278 -93.0672 65° Northeast 301 346 8,800  Level Minneapolis Center
Sun 05:53:00 PM 44.6709 -92.5308 122° Southeast  Level FlightAware Approximate
Sun 05:53:50 PM 44.9994 -92.9464 108° East 331 381 11,200  Level Minneapolis Center
Sun 05:54:00 PM 44.6167 -92.3901 90° East  Level FlightAware Approximate
Sun 05:54:52 PM 44.9214 -92.8156 130° Southeast 361 415 14,000  Level Minneapolis Center
Sun 05:55:00 PM 44.5702 -92.2554 117° Southeast  Level FlightAware Approximate
Sun 05:55:54 PM 44.8525 -92.7006 130° Southeast 381 438 16,300  Level Minneapolis Center
Sun 05:56:56 PM 44.7806 -92.5814 130° Southeast 396 456 18,500 2,081 Climbing Minneapolis Center
Sun 05:57:58 PM 44.7083 -92.4617 130° Southeast 401 461 20,600 1,887 Climbing Minneapolis Center
Sun 05:59:00 PM 44.6325 -92.3369 130° Southeast 415 478 22,400 1,161 Climbing Minneapolis Center
Sun 06:00:02 PM 44.5550 -92.2078 130° Southeast 430 495 23,000 823 Climbing Minneapolis Center
Sun 06:01:04 PM 44.4639 -92.0325 126° Southeast 461 531 24,100 1,161 Climbing Minneapolis Center
Sun 06:02:06 PM 44.3886 -91.8867 126° Southeast 462 532 25,400 1,210 Climbing Minneapolis Center
Sun 06:03:08 PM 44.3219 -91.7269 120° Southeast 477 549 26,600 1,113 Climbing Minneapolis Center
Sun 06:04:10 PM 44.2592 -91.5581 117° Southeast 489 563 27,700 1,016 Climbing Minneapolis Center
Sun 06:05:12 PM 44.1925 -91.3886 119° Southeast 496 571 28,700 1,122 Climbing Minneapolis Center
Sun 06:06:13 PM 44.1183 -91.1939 118° Southeast 507 583 30,000 1,220 Climbing Minneapolis Center
Sun 06:07:15 PM 44.0514 -91.0219 118° Southeast 509 586 31,200 1,065 Climbing Minneapolis Center
Sun 06:08:17 PM 43.9850 -90.8489 118° Southeast 510 587 32,200 968 Climbing Minneapolis Center
Sun 06:09:19 PM 43.9172 -90.6781 119° Southeast 509 586 33,200 968 Climbing Minneapolis Center
Sun 06:10:21 PM 43.8464 -90.4981 119° Southeast 507 583 34,200 871 Climbing Minneapolis Center
Sun 06:11:23 PM 43.7928 -90.2847 109° East 506 582 35,000 387 Climbing Minneapolis Center
Sun 06:12:25 PM 43.7581 -90.0981 104° East 503 579 35,000  Level Chicago Center
Sun 06:13:27 PM 43.7242 -89.9100 104° East 504 580 35,000  Level Chicago Center
Sun 06:14:29 PM 43.6861 -89.7217 106° East 509 586 35,000  Level Chicago Center
Sun 06:15:31 PM 43.6481 -89.5281 105° East 521 600 35,000  Level Chicago Center
Sun 06:16:33 PM 43.6117 -89.3311 104° East 529 609 35,000  Level Chicago Center
Sun 06:17:35 PM 43.5650 -89.0978 105° East 539 620 35,000  Level Chicago Center
Sun 06:18:37 PM 43.5247 -88.8972 105° East 541 623 35,000  Level Chicago Center
Sun 06:19:40 PM 43.4847 -88.6967 105° East 544 626 35,000  Level Chicago Center
Sun 06:20:42 PM 43.4378 -88.4711 106° East 546 628 35,000  Level Chicago Center
Sun 06:21:44 PM 43.3983 -88.2781 106° East 545 627 35,000  Level Chicago Center
Sun 06:22:46 PM 43.3575 -88.0797 106° East 541 623 35,000  Level Chicago Center
Sun 06:23:48 PM 43.3161 -87.8808 106° East 541 623 35,000  Level Chicago Center
Sun 06:24:50 PM 43.2744 -87.6817 106° East 543 625 35,000  Level Chicago Center
Sun 06:25:52 PM 43.2247 -87.4503 106° East 543 625 35,000  Level Chicago Center
Sun 06:26:54 PM 43.1842 -87.2617 106° East 542 624 35,000  Level Chicago Center
Sun 06:27:56 PM 43.1419 -87.0639 106° East 541 623 35,000  Level Chicago Center
Sun 06:28:58 PM 43.0981 -86.8686 107° East 540 621 35,000  Level Chicago Center
Sun 06:30:00 PM 43.0556 -86.6733 107° East 539 620 35,000  Level Chicago Center
Sun 06:31:02 PM 43.0033 -86.4389 107° East 540 621 35,000  Level Chicago Center
Sun 06:32:04 PM 42.9589 -86.2472 108° East 537 618 35,000  Level Chicago Center
Sun 06:33:07 PM 42.9153 -86.0597 108° East 534 615 35,000  Level Chicago Center
Sun 06:34:09 PM 42.8642 -85.8317 107° East 538 619 35,000  Level Chicago Center
Sun 06:35:11 PM 42.8192 -85.6367 107° East 544 626 35,000  Level Chicago Center
Sun 06:36:13 PM 42.7706 -85.4431 109° East 545 627 35,000  Level Chicago Center
Sun 06:37:15 PM 42.7047 -85.2578 116° Southeast 544 626 35,000  Level Chicago Center
Sun 06:38:17 PM 42.6392 -85.0722 116° Southeast 547 629 35,000  Level Chicago Center
Sun 06:39:19 PM 42.5736 -84.8875 116° Southeast 545 627 35,000  Level Chicago Center
Sun 06:40:21 PM 42.4942 -84.6661 116° Southeast 545 627 35,000  Level Chicago Center
Sun 06:41:23 PM 42.4264 -84.4825 117° Southeast 547 629 35,000  Level Chicago Center
Sun 06:42:08 PM 42.3775 -84.3556 118° Southeast 550 633 35,000  Level Cleveland Center
Sun 06:43:08 PM 42.3125 -84.1747 116° Southeast 550 633 35,000  Level Cleveland Center
Sun 06:44:08 PM 42.2450 -83.9942 117° Southeast 545 627 35,000  Level Cleveland Center
Sun 06:45:08 PM 42.1792 -83.8167 117° Southeast 545 627 35,000  Level Cleveland Center
Sun 06:46:08 PM 42.1111 -83.6397 117° Southeast 545 627 35,000  Level Cleveland Center
Sun 06:47:08 PM 42.0347 -83.4431 118° Southeast 545 627 35,000  Level Cleveland Center
Sun 06:48:08 PM 41.9553 -83.2833 124° Southeast 533 613 35,000  Level Cleveland Center
Sun 06:49:08 PM 41.8772 -83.1406 126° Southeast 528 608 35,000  Level Cleveland Center
Sun 06:50:08 PM 41.7850 -82.9642 125° Southeast 528 608 35,000  Level Cleveland Center
Sun 06:51:08 PM 41.6964 -82.8106 128° Southeast 528 608 35,000  Level Cleveland Center
Sun 06:52:08 PM 41.5967 -82.6794 135° Southeast 511 588 35,000  Level Cleveland Center
Sun 06:53:08 PM 41.4950 -82.5486 136° Southeast 504 580 35,000  Level Cleveland Center
Sun 06:54:08 PM 41.4050 -82.4297 135° Southeast 499 574 35,000  Level Cleveland Center
Sun 06:55:08 PM 41.3050 -82.3025 136° Southeast 499 574 35,000 -600 Level Cleveland Center
Sun 06:56:08 PM 41.2047 -82.1728 136° Southeast 499 574 33,800 -1,000 Descending Cleveland Center
Sun 06:57:08 PM 41.1275 -82.0111 122° Southeast 504 580 33,000 -400 Descending Cleveland Center
Sun 06:58:08 PM 41.0419 -81.8494 125° Southeast 522 601 33,000  Level Cleveland Center
Sun 06:59:08 PM 40.9622 -81.6939 124° Southeast 522 601 33,000  Level Cleveland Center
Sun 07:00:08 PM 40.8614 -81.5686 137° Southeast 505 581 33,000 -550 Level Cleveland Center
Sun 07:01:08 PM 40.7558 -81.4464 139° Southeast 499 574 31,900 -1,000 Descending Cleveland Center
Sun 07:02:08 PM 40.6506 -81.3275 139° Southeast 504 580 31,000 -450 Descending Cleveland Center
Sun 07:03:08 PM 40.5492 -81.2061 138° Southeast 504 580 31,000  Level Cleveland Center
Sun 07:04:08 PM 40.4433 -81.0878 140° Southeast 499 574 31,000  Level Cleveland Center
Sun 07:05:08 PM 40.3356 -80.9672 140° Southeast 504 580 31,000  Level Cleveland Center
Sun 07:06:08 PM 40.2294 -80.8494 140° Southeast 504 580 31,000  Level Cleveland Center
Sun 07:07:08 PM 40.1256 -80.7297 139° Southeast 504 580 31,000  Level Cleveland Center
Sun 07:08:08 PM 40.0172 -80.6103 140° Southeast 504 580 31,000  Level Cleveland Center
Sun 07:09:08 PM 39.9086 -80.4911 140° Southeast 504 580 31,000  Level Cleveland Center
Sun 07:10:08 PM 39.8003 -80.3750 141° Southeast 510 587 31,000  Level Cleveland Center
Sun 07:11:08 PM 39.6936 -80.2567 139° Southeast 505 581 31,000  Level Cleveland Center
Sun 07:12:08 PM 39.5869 -80.1386 140° Southeast 505 581 31,000  Level Cleveland Center
Sun 07:13:55 PM 39.3939 -79.9317 140° Southeast 487 560 31,000  Level Washington Center
Sun 07:14:56 PM 39.3050 -79.7894 129° Southeast 487 560 31,000  Level Washington Center
Sun 07:15:57 PM 39.2778 -79.6083 101° East 509 586 31,000  Level Washington Center
Sun 07:16:55 PM 39.2647 -79.4331 95° East 496 571 31,000 -403 Level Washington Center
Sun 07:17:56 PM 39.2497 -79.2475 96° East 496 571 30,200 -1,721 Descending Washington Center
Sun 07:18:57 PM 39.2342 -79.0725 96° East 501 577 27,500 -2,557 Descending Washington Center
Sun 07:19:58 PM 39.2200 -78.9083 96° East 493 567 25,000 -2,441 Descending Washington Center
Sun 07:20:55 PM 39.2014 -78.7467 98° East 467 537 22,700 -2,359 Descending Washington Center
Sun 07:21:55 PM 39.1867 -78.5908 97° East 450 518 20,400 -2,281 Descending Washington Center
Sun 07:22:56 PM 39.1736 -78.4458 97° East 429 494 18,100 -1,967 Descending Washington Center
Sun 07:23:57 PM 39.1478 -78.2922 102° East 406 467 16,400 -1,339 Descending Washington Center
Sun 07:24:57 PM 39.1133 -78.1572 108° East 394 453 15,400 -1,068 Descending Washington Center
Sun 07:25:55 PM 39.0783 -78.0303 110° East 382 440 14,300 -1,160 Descending Washington Center
Sun 07:26:56 PM 39.0475 -77.9036 107° East 377 434 13,100 -1,475 Descending Washington Center
Sun 07:27:57 PM 39.0203 -77.7958 108° East 362 417 11,300 -1,059 Descending Washington Center
Sun 07:28:55 PM 38.9872 -77.6694 109° East 342 394 11,000 -706 Descending Washington Center
Sun 07:29:56 PM 38.9597 -77.5750 111° Southeast 318 366 9,900 -1,426 Descending Washington Center
Sun 07:30:57 PM 38.9167 -77.4500 114° Southeast 318 366 8,100 -1,574 Descending Potomac TRACON
Sun 07:31:58 PM 38.8667 -77.3667 128° Southeast 302 348 6,700 -1,041 Descending Potomac TRACON
Sun 07:32:58 PM 38.8333 -77.2667 113° Southeast 305 351 6,000 -474 Descending Potomac TRACON
Sun 07:33:52 PM 38.8000 -77.1833 117° Southeast 267 307 5,800 -222 Descending Potomac TRACON

Login

Don't have an account? Register now (free) for customized features, flight alerts, and more!